createdAt,value
2022-10-11T00:02:29.985Z,4172.4
2022-10-11T00:08:04.883Z,4169.2
2022-10-11T00:13:40.042Z,4171.8
2022-10-11T00:19:14.806Z,4171.6
2022-10-11T00:24:49.727Z,4169.6
2022-10-11T00:30:24.497Z,4169.4
2022-10-11T00:35:59.752Z,4169.4
2022-10-11T00:41:35.645Z,4172.1
2022-10-11T00:47:10.587Z,4166.7
2022-10-11T00:52:45.582Z,4168.7
2022-10-11T00:58:20.473Z,4165.9
2022-10-11T01:03:55.534Z,4165.2
2022-10-11T01:09:30.703Z,4167.2
2022-10-11T01:15:05.574Z,4167.6
2022-10-11T01:20:40.186Z,4168.4
2022-10-11T01:26:14.991Z,4169.9
2022-10-11T01:31:50.221Z,4168.9
2022-10-11T01:37:25.030Z,4171.3
2022-10-11T01:43:00.066Z,4165.7
2022-10-11T01:48:35.091Z,4166.6
2022-10-11T01:54:09.960Z,4164.7
2022-10-11T01:59:44.990Z,4166.9
2022-10-11T02:05:20.198Z,4165.7
2022-10-11T02:10:54.875Z,4169.2
2022-10-11T02:16:29.563Z,4162.5
2022-10-11T02:22:04.765Z,4160.4
2022-10-11T02:27:40.609Z,4164.7
2022-10-11T02:33:15.392Z,4164.7
2022-10-11T02:38:50.217Z,4162.7
2022-10-11T02:44:25.058Z,4165.2
2022-10-11T02:50:00.001Z,4167.4
2022-10-11T02:55:34.778Z,4164.6
2022-10-11T03:01:10.230Z,4160.9
2022-10-11T03:06:45.281Z,4162.2
2022-10-11T03:12:20.144Z,4162.5
2022-10-11T03:17:55.346Z,4162.7
2022-10-11T03:23:30.031Z,4160.5
2022-10-11T03:29:05.287Z,4161.9
2022-10-11T03:34:40.557Z,4158.9
2022-10-11T03:40:15.353Z,4159.4
2022-10-11T03:45:50.155Z,4159.2
2022-10-11T03:51:24.752Z,4159.9
2022-10-11T03:56:59.415Z,4158.7
2022-10-11T04:02:40.691Z,4158.9
2022-10-11T04:08:16.749Z,4160.7
2022-10-11T04:13:59.019Z,4158.2
2022-10-11T04:19:33.889Z,4157.7
2022-10-11T04:25:08.673Z,4162.2
2022-10-11T04:30:43.646Z,4159
2022-10-11T04:36:18.551Z,4159.5
2022-10-11T04:41:53.503Z,4160.4
2022-10-11T04:47:29.634Z,4159.2
2022-10-11T04:53:06.395Z,4156.3
2022-10-11T04:58:41.379Z,4156.7
2022-10-11T05:04:15.970Z,4156
2022-10-11T05:09:50.951Z,4158
2022-10-11T05:15:26.724Z,4154.8
2022-10-11T05:21:01.419Z,4156.2
2022-10-11T05:26:36.445Z,4154.5
2022-10-11T05:32:11.525Z,4154.7
2022-10-11T05:37:46.378Z,4157.2
2022-10-11T05:43:21.113Z,4152.2
2022-10-11T05:48:55.876Z,4152.3
2022-10-11T05:54:30.971Z,4154.3
2022-10-11T06:00:06.153Z,4155.8
2022-10-11T06:05:42.821Z,4153.2
2022-10-11T06:11:17.649Z,4151.5
2022-10-11T06:16:52.414Z,4152.5
2022-10-11T06:22:27.637Z,4151.5
2022-10-11T06:28:02.499Z,4152
2022-10-11T06:33:37.372Z,4150.3
2022-10-11T06:39:12.143Z,4153
2022-10-11T06:44:47.010Z,4151.5
2022-10-11T06:51:02.198Z,4153.3
2022-10-11T06:56:37.615Z,4153.2
2022-10-11T07:02:13.212Z,4158.4
2022-10-11T07:07:47.948Z,4160.4
2022-10-11T07:13:22.847Z,4160.9
2022-10-11T07:19:02.235Z,4164.6
2022-10-11T07:24:37.322Z,4162.5
2022-10-11T07:30:12.362Z,4167.7
2022-10-11T07:35:49.976Z,4168.1
2022-10-11T07:41:24.861Z,4174.6
2022-10-11T07:46:59.666Z,4174.9
2022-10-11T07:52:34.583Z,4172.4
2022-10-11T07:58:09.874Z,4171.9
2022-10-11T08:03:44.738Z,4176.6
2022-10-11T08:09:19.873Z,4178.3
2022-10-11T08:14:55.086Z,4182.5
2022-10-11T08:20:31.565Z,4181.1
2022-10-11T08:26:10.348Z,4181.8
2022-10-11T08:31:45.632Z,4181.8
2022-10-11T08:37:20.335Z,4185.8
2022-10-11T08:42:55.331Z,4186
2022-10-11T08:48:31.319Z,4191.4
2022-10-11T08:54:09.001Z,4182
2022-10-11T08:59:44.345Z,4180.3
2022-10-11T09:05:19.294Z,4184.7
2022-10-11T09:10:55.327Z,4184.5
2022-10-11T09:16:30.170Z,4183.8
2022-10-11T09:22:05.173Z,4182.6
2022-10-11T09:28:15.278Z,4185.8
2022-10-11T09:33:50.443Z,4187.8
2022-10-11T09:39:25.447Z,4186.5
2022-10-11T09:45:00.173Z,4184
2022-10-11T09:50:35.211Z,4188.3
2022-10-11T09:56:11.147Z,4191.7
2022-10-11T10:01:47.159Z,4190.3
2022-10-11T10:07:22.625Z,4186
2022-10-11T10:12:57.438Z,4188.3
2022-10-11T10:18:32.639Z,4191
2022-10-11T10:24:07.747Z,4194.2
2022-10-11T10:29:42.663Z,4186.5
2022-10-11T10:35:17.721Z,4191
2022-10-11T10:40:52.649Z,4195.9
2022-10-11T10:46:27.833Z,4191.9
2022-10-11T10:52:02.613Z,4188.5
2022-10-11T10:57:38.655Z,4191.5
2022-10-11T11:03:13.882Z,4195
2022-10-11T11:08:48.676Z,4197.4
2022-10-11T11:14:23.559Z,4193
2022-10-11T11:19:58.627Z,4196.5
2022-10-11T11:25:33.612Z,4206.8
2022-10-11T11:31:09.926Z,4214.3
2022-10-11T11:36:44.741Z,4223
2022-10-11T11:42:22.514Z,4225.7
2022-10-11T11:47:58.478Z,4213.8
2022-10-11T11:53:34.940Z,4217.5
2022-10-11T11:59:19.161Z,4212.5
2022-10-11T12:04:54.454Z,4211.5
2022-10-11T12:10:30.401Z,4226.7
2022-10-11T12:16:05.441Z,4216.1
2022-10-11T12:21:56.745Z,4219.3
2022-10-11T12:27:31.940Z,4210.8
2022-10-11T12:33:07.112Z,4224.7
2022-10-11T12:38:47.301Z,4219
2022-10-11T12:44:25.186Z,4211.8
2022-10-11T12:49:59.992Z,4213.6
2022-10-11T12:56:01.917Z,4223.3
2022-10-11T13:01:39.306Z,4222
2022-10-11T13:07:15.341Z,4222.2
2022-10-11T13:12:50.308Z,4217
2022-10-11T13:18:34.113Z,4223.3
2022-10-11T13:24:09.398Z,4213.5
2022-10-11T13:29:53.053Z,4208.4
2022-10-11T13:35:28.094Z,4203.6
2022-10-11T13:41:04.755Z,4203.4
2022-10-11T13:46:45.668Z,4196.5
2022-10-11T13:52:26.421Z,4201.7
2022-10-11T13:58:09.675Z,4200.2
2022-10-11T14:03:44.823Z,4202.7
2022-10-11T14:09:20.377Z,4204.8
2022-10-11T14:14:55.968Z,4205.4
2022-10-11T14:20:34.316Z,4204.4
2022-10-11T14:26:09.774Z,4207.8
2022-10-11T14:31:47.347Z,4202.7
2022-10-11T14:37:22.319Z,4203.7
2022-10-11T14:42:57.342Z,4202.6
2022-10-11T14:48:57.667Z,4198.4
2022-10-11T14:54:33.305Z,4199.9
2022-10-11T15:00:08.408Z,4205.1
2022-10-11T15:05:43.356Z,4202.9
2022-10-11T15:11:18.727Z,4208.8
2022-10-11T15:16:53.750Z,4212.1
2022-10-11T15:22:34.477Z,4218.7
2022-10-11T15:28:10.353Z,4214.1
2022-10-11T15:33:45.571Z,4213
2022-10-11T15:39:20.550Z,4211.8
2022-10-11T15:44:55.503Z,4203.7
2022-10-11T15:50:32.814Z,4203.6
2022-10-11T15:56:11.063Z,4203.6
2022-10-11T16:01:47.089Z,4201.9
2022-10-11T16:07:22.787Z,4203.2
2022-10-11T16:12:57.709Z,4198.7
2022-10-11T16:18:37.333Z,4197.9
2022-10-11T16:24:13.376Z,4196.9
2022-10-11T16:29:48.115Z,4199.1
2022-10-11T16:35:23.229Z,4198.4
2022-10-11T16:40:58.031Z,4196
2022-10-11T16:46:32.789Z,4196.7
2022-10-11T16:52:07.737Z,4193.4
2022-10-11T16:57:42.474Z,4194.5
2022-10-11T17:03:18.647Z,4193.7
2022-10-11T17:08:53.701Z,4196.4
2022-10-11T17:14:28.452Z,4194
2022-10-11T17:20:03.769Z,4192.5
2022-10-11T17:25:38.983Z,4193
2022-10-11T17:31:13.879Z,4191
2022-10-11T17:36:49.924Z,4192.5
2022-10-11T17:42:24.775Z,4190.5
2022-10-11T17:47:59.610Z,4190.2
2022-10-11T17:53:34.119Z,4193
2022-10-11T17:59:08.611Z,4188.3
2022-10-11T18:04:43.528Z,4188.8
2022-10-11T18:10:22.128Z,4191
2022-10-11T18:15:57.452Z,4189.3
2022-10-11T18:21:36.071Z,4191.7
2022-10-11T18:27:11.080Z,4191
2022-10-11T18:32:46.185Z,4189.7
2022-10-11T18:38:21.055Z,4186
2022-10-11T18:43:55.990Z,4185.5
2022-10-11T18:49:31.186Z,4186.8
2022-10-11T18:55:06.146Z,4187
2022-10-11T19:00:42.727Z,4185.7
2022-10-11T19:06:18.208Z,4186.8
2022-10-11T19:11:53.145Z,4184.7
2022-10-11T19:17:27.925Z,4186.3
2022-10-11T19:23:11.969Z,4186.7
2022-10-11T19:28:48.260Z,4184.1
2022-10-11T19:34:24.223Z,4183.3
2022-10-11T19:39:59.136Z,4180.8
2022-10-11T19:45:43.265Z,4185
2022-10-11T19:51:21.983Z,4185
2022-10-11T19:56:56.925Z,4184
2022-10-11T20:02:34.777Z,4182.1
2022-10-11T20:08:10.808Z,4184.3
2022-10-11T20:13:45.659Z,4183.8
2022-10-11T20:19:35.227Z,4181.6
2022-10-11T20:25:19.158Z,4181
2022-10-11T20:30:54.037Z,4182
2022-10-11T20:36:28.859Z,4180
2022-10-11T20:42:03.661Z,4180.6
2022-10-11T20:47:39.839Z,4181.8
2022-10-11T20:53:28.730Z,4178.5
2022-10-11T20:59:03.823Z,4178.8
2022-10-11T21:04:38.656Z,4176.8
2022-10-11T21:10:13.863Z,4180.3
2022-10-11T21:15:50.359Z,4179.1
2022-10-11T21:21:32.563Z,4180.6
2022-10-11T21:27:20.499Z,4179.6
2022-10-11T21:33:23.927Z,4179.1
2022-10-11T21:38:59.210Z,4175.6
2022-10-11T21:44:42.816Z,4178.6
2022-10-11T21:50:29.197Z,4178.3
2022-10-11T21:56:04.418Z,4178
2022-10-11T22:01:40.227Z,4176.3
2022-10-11T22:07:40.977Z,4176.9
2022-10-11T22:13:17.161Z,4176.1
2022-10-11T22:19:13.248Z,4176.3
2022-10-11T22:24:48.543Z,4174.1
2022-10-11T22:30:23.468Z,4176.8
2022-10-11T22:35:58.525Z,4175.4
2022-10-11T22:41:40.028Z,4174.4
2022-10-11T22:47:23.722Z,4173.4
2022-10-11T22:52:58.541Z,4174.6
2022-10-11T22:58:36.973Z,4173.8
2022-10-11T23:04:11.853Z,4172.6
2022-10-11T23:09:55.976Z,4176.8
2022-10-11T23:15:31.117Z,4173.4
2022-10-11T23:21:07.639Z,4172.4
2022-10-11T23:26:51.535Z,4173.8
2022-10-11T23:32:47.281Z,4173.6
2022-10-11T23:38:23.551Z,4171.9
2022-10-11T23:44:01.157Z,4172.4
2022-10-11T23:49:59.456Z,4168.1
2022-10-11T23:55:36.911Z,4171.6
